createdAt,value
2022-08-26T00:00:12.662Z,9.661523
2022-08-26T00:01:12.642Z,9.661477
2022-08-26T00:02:12.820Z,9.661516
2022-08-26T00:03:12.666Z,9.661500
2022-08-26T00:04:12.780Z,9.661507
2022-08-26T00:05:12.620Z,9.661532
2022-08-26T00:06:12.621Z,9.661541
2022-08-26T00:07:12.618Z,9.661532
2022-08-26T00:08:13.100Z,9.661551
2022-08-26T00:09:12.641Z,9.661540
2022-08-26T00:10:12.610Z,9.661525
2022-08-26T00:11:12.582Z,9.661526
2022-08-26T00:12:12.671Z,9.661546
2022-08-26T00:13:12.568Z,9.661573
2022-08-26T00:14:12.579Z,9.661588
2022-08-26T00:15:12.569Z,9.661563
2022-08-26T00:16:12.622Z,9.661574
2022-08-26T00:17:12.568Z,9.661606
2022-08-26T00:18:21.763Z,9.661516
2022-08-26T00:19:12.543Z,9.661480
2022-08-26T00:20:12.567Z,9.661520
2022-08-26T00:21:12.523Z,9.661547
2022-08-26T00:22:12.521Z,9.661505
2022-08-26T00:23:13.529Z,9.661535
2022-08-26T00:24:12.514Z,9.661508
2022-08-26T00:25:12.544Z,9.661408
2022-08-26T00:26:12.552Z,9.661489
2022-08-26T00:27:12.497Z,9.661581
2022-08-26T00:28:12.530Z,9.661584
2022-08-26T00:29:12.557Z,9.661594
2022-08-26T00:30:12.484Z,9.661531
2022-08-26T00:31:12.518Z,9.661577
2022-08-26T00:32:12.468Z,9.661589
2022-08-26T00:33:12.467Z,9.661599
2022-08-26T00:34:12.463Z,9.661567
2022-08-26T00:35:12.447Z,9.661556
2022-08-26T00:36:14.422Z,9.661573
2022-08-26T00:37:16.138Z,9.661511
2022-08-26T00:38:13.433Z,9.661525
2022-08-26T00:39:12.442Z,9.661550
2022-08-26T00:40:12.465Z,9.661560
2022-08-26T00:41:12.485Z,9.661511
2022-08-26T00:42:12.418Z,9.661533
2022-08-26T00:43:12.426Z,9.661587
2022-08-26T00:44:12.414Z,9.661645
2022-08-26T00:45:12.410Z,9.661595
2022-08-26T00:46:13.365Z,9.661514
2022-08-26T00:47:12.457Z,9.661495
2022-08-26T00:48:12.393Z,9.661491
2022-08-26T00:49:12.541Z,9.661533
2022-08-26T00:50:12.385Z,9.661593
2022-08-26T00:51:12.458Z,9.661584
2022-08-26T00:52:13.181Z,9.661573
2022-08-26T00:53:12.366Z,9.661630
2022-08-26T00:54:12.358Z,9.661578
2022-08-26T00:55:12.337Z,9.661544
2022-08-26T00:56:12.355Z,9.661526
2022-08-26T00:57:16.401Z,9.661405
2022-08-26T00:58:12.326Z,9.661744
2022-08-26T00:59:12.333Z,9.661839
2022-08-26T01:00:12.315Z,9.661801
2022-08-26T01:01:12.323Z,9.661813
2022-08-26T01:02:20.712Z,9.661658
2022-08-26T01:03:13.321Z,9.661578
2022-08-26T01:04:12.287Z,9.661522
2022-08-26T01:05:12.290Z,9.661442
2022-08-26T01:06:13.065Z,9.661577
2022-08-26T01:07:12.286Z,9.661533
2022-08-26T01:08:12.300Z,9.661642
2022-08-26T01:09:12.270Z,9.661325
2022-08-26T01:10:12.257Z,9.661530
2022-08-26T01:11:12.257Z,9.661571
2022-08-26T01:12:12.249Z,9.661588
2022-08-26T01:13:12.261Z,9.661519
2022-08-26T01:14:12.825Z,9.661574
2022-08-26T01:15:12.631Z,9.661602
2022-08-26T01:16:12.237Z,9.661620
2022-08-26T01:17:12.218Z,9.661579
2022-08-26T01:18:12.238Z,9.661662
2022-08-26T01:19:12.236Z,9.662030
2022-08-26T01:20:12.215Z,9.661699
2022-08-26T01:21:12.209Z,9.661623
2022-08-26T01:22:12.195Z,9.661537
2022-08-26T01:23:12.206Z,9.661581
2022-08-26T01:24:12.197Z,9.661546
2022-08-26T01:25:12.205Z,9.661551
2022-08-26T01:26:19.435Z,9.661654
2022-08-26T01:27:13.162Z,9.661766
2022-08-26T01:28:12.148Z,9.661442
2022-08-26T01:29:12.165Z,9.661480
2022-08-26T01:30:12.155Z,9.661757
2022-08-26T01:31:12.187Z,9.661923
2022-08-26T01:32:12.138Z,9.661459
2022-08-26T01:33:12.136Z,9.661622
2022-08-26T01:34:12.160Z,9.661599
2022-08-26T01:35:12.118Z,9.661475
2022-08-26T01:36:12.136Z,9.661487
2022-08-26T01:37:15.491Z,9.661345
2022-08-26T01:38:12.114Z,9.661377
2022-08-26T01:39:12.092Z,9.661490
2022-08-26T01:40:12.162Z,9.661546
2022-08-26T01:41:19.522Z,9.661694
2022-08-26T01:42:12.086Z,9.661618
2022-08-26T01:43:12.794Z,9.661788
2022-08-26T01:44:12.055Z,9.661665
2022-08-26T01:45:12.093Z,9.661911
2022-08-26T01:46:12.120Z,9.661548
2022-08-26T01:47:12.187Z,9.661557
2022-08-26T01:48:12.043Z,9.661506
2022-08-26T01:49:12.039Z,9.661580
2022-08-26T01:50:13.013Z,9.661695
2022-08-26T01:51:12.014Z,9.661897
2022-08-26T01:52:12.054Z,9.661938
2022-08-26T01:53:12.226Z,9.661632
2022-08-26T01:54:13.785Z,9.661804
2022-08-26T01:55:12.077Z,9.661858
2022-08-26T01:56:12.002Z,9.661613
2022-08-26T01:57:12.002Z,9.661682
2022-08-26T01:58:11.990Z,9.661702
2022-08-26T01:59:12.255Z,9.661770
2022-08-26T02:00:11.969Z,9.661894
2022-08-26T02:01:11.987Z,9.662059
2022-08-26T02:02:11.940Z,9.662096
2022-08-26T02:03:12.060Z,9.662183
2022-08-26T02:04:11.962Z,9.662225
2022-08-26T02:05:11.922Z,9.661607
2022-08-26T02:06:11.934Z,9.661425
2022-08-26T02:07:12.924Z,9.661111
2022-08-26T02:08:11.932Z,9.661618
2022-08-26T02:09:11.933Z,9.661724
2022-08-26T02:10:11.914Z,9.661745
2022-08-26T02:11:11.902Z,9.661628
2022-08-26T02:12:11.897Z,9.661543
2022-08-26T02:13:11.894Z,9.661523
2022-08-26T02:14:11.900Z,9.661632
2022-08-26T02:15:12.877Z,9.661562
2022-08-26T02:16:11.935Z,9.661563
2022-08-26T02:17:11.872Z,9.661510
2022-08-26T02:18:14.016Z,9.661569
2022-08-26T02:19:11.853Z,9.661633
2022-08-26T02:20:13.321Z,9.661551
2022-08-26T02:21:11.857Z,9.661630
2022-08-26T02:22:11.839Z,9.661604
2022-08-26T02:23:11.825Z,9.661615
2022-08-26T02:24:11.834Z,9.661510
2022-08-26T02:25:11.844Z,9.661502
2022-08-26T02:26:11.822Z,9.661465
2022-08-26T02:27:11.822Z,9.661661
2022-08-26T02:28:11.815Z,9.661694
2022-08-26T02:29:11.807Z,9.661734
2022-08-26T02:30:11.793Z,9.661789
2022-08-26T02:31:11.872Z,9.661643
2022-08-26T02:32:11.780Z,9.661383
2022-08-26T02:33:11.779Z,9.661565
2022-08-26T02:34:11.783Z,9.661604
2022-08-26T02:35:11.780Z,9.661428
2022-08-26T02:36:12.175Z,9.661532
2022-08-26T02:37:11.745Z,9.661631
2022-08-26T02:38:11.742Z,9.661494
2022-08-26T02:39:11.738Z,9.661455
2022-08-26T02:40:11.783Z,9.661604
2022-08-26T02:41:11.726Z,9.661613
2022-08-26T02:42:11.753Z,9.661628
2022-08-26T02:43:11.707Z,9.661569
2022-08-26T02:44:11.700Z,9.661515
2022-08-26T02:45:11.703Z,9.661678
2022-08-26T02:46:11.751Z,9.661599
2022-08-26T02:47:12.872Z,9.661622
2022-08-26T02:48:11.690Z,9.661719
2022-08-26T02:49:11.676Z,9.661642
2022-08-26T02:50:11.676Z,9.661563
2022-08-26T02:51:11.661Z,9.661535
2022-08-26T02:52:11.683Z,9.661738
2022-08-26T02:53:11.779Z,9.661645
2022-08-26T02:54:11.646Z,9.661561
2022-08-26T02:55:11.642Z,9.661541
2022-08-26T02:56:11.647Z,9.661502
2022-08-26T02:57:11.689Z,9.661481
2022-08-26T02:58:11.655Z,9.661521
2022-08-26T02:59:11.624Z,9.661572
2022-08-26T03:00:11.627Z,9.661737
2022-08-26T03:01:11.680Z,9.661661
2022-08-26T03:02:11.635Z,9.661813
2022-08-26T03:03:11.611Z,9.661796
2022-08-26T03:04:11.627Z,9.661565
2022-08-26T03:05:11.593Z,9.661764
2022-08-26T03:06:11.583Z,9.661909
2022-08-26T03:07:11.593Z,9.661665
2022-08-26T03:08:11.572Z,9.661455
2022-08-26T03:09:15.975Z,9.661532
2022-08-26T03:10:12.547Z,9.661754
2022-08-26T03:11:11.562Z,9.661430
2022-08-26T03:12:11.548Z,9.661629
2022-08-26T03:13:11.584Z,9.661612
2022-08-26T03:14:11.546Z,9.661690
2022-08-26T03:15:17.423Z,9.661533
2022-08-26T03:16:11.599Z,9.661394
2022-08-26T03:17:11.528Z,9.661481
2022-08-26T03:18:11.505Z,9.661521
2022-08-26T03:19:11.505Z,9.661535
2022-08-26T03:20:11.511Z,9.661472
2022-08-26T03:21:11.501Z,9.661505
2022-08-26T03:22:11.488Z,9.661450
2022-08-26T03:23:11.493Z,9.661549
2022-08-26T03:24:11.479Z,9.661623
2022-08-26T03:25:11.487Z,9.661760
2022-08-26T03:26:11.495Z,9.661749
2022-08-26T03:27:11.503Z,9.661696
2022-08-26T03:28:11.457Z,9.661716
2022-08-26T03:29:11.431Z,9.661805
2022-08-26T03:30:11.715Z,9.661702
2022-08-26T03:31:11.503Z,9.661679
2022-08-26T03:32:11.440Z,9.661644
2022-08-26T03:33:11.402Z,9.661707
2022-08-26T03:34:11.453Z,9.661608
2022-08-26T03:35:11.415Z,9.661737
2022-08-26T03:36:11.442Z,9.661886
2022-08-26T03:37:11.439Z,9.661914
2022-08-26T03:38:11.400Z,9.661971
2022-08-26T03:39:11.399Z,9.661725
2022-08-26T03:40:11.449Z,9.661674
2022-08-26T03:41:11.386Z,9.661700
2022-08-26T03:42:11.483Z,9.661836
2022-08-26T03:43:11.386Z,9.661851
2022-08-26T03:44:11.378Z,9.661798
2022-08-26T03:45:11.353Z,9.661754
2022-08-26T03:46:11.358Z,9.661720
2022-08-26T03:47:11.348Z,9.661755
2022-08-26T03:48:11.373Z,9.661634
2022-08-26T03:49:11.361Z,9.661673
2022-08-26T03:50:11.328Z,9.661595
2022-08-26T03:51:11.327Z,9.661510
2022-08-26T03:52:11.859Z,9.661504
2022-08-26T03:53:12.844Z,9.661562
2022-08-26T03:54:11.313Z,9.661654
2022-08-26T03:55:11.293Z,9.661611
2022-08-26T03:56:11.304Z,9.661520
2022-08-26T03:57:11.294Z,9.661446
2022-08-26T03:58:11.292Z,9.661575
2022-08-26T03:59:11.290Z,9.661626
2022-08-26T04:00:11.281Z,9.661525
2022-08-26T04:01:11.266Z,9.661551
2022-08-26T04:02:11.460Z,9.661502
2022-08-26T04:03:14.721Z,9.661585
2022-08-26T04:04:15.527Z,9.661676
2022-08-26T04:05:11.250Z,9.661451
2022-08-26T04:06:11.223Z,9.661499
2022-08-26T04:07:11.240Z,9.661489
2022-08-26T04:08:11.237Z,9.661585
2022-08-26T04:09:11.217Z,9.661590
2022-08-26T04:10:11.321Z,9.661542
2022-08-26T04:11:11.209Z,9.661556
2022-08-26T04:12:11.208Z,9.661555
2022-08-26T04:13:11.180Z,9.661496
2022-08-26T04:14:11.176Z,9.661565
2022-08-26T04:15:11.285Z,9.661497
2022-08-26T04:16:11.773Z,9.661510
2022-08-26T04:17:11.167Z,9.661593
2022-08-26T04:18:11.172Z,9.661555
2022-08-26T04:19:11.169Z,9.661608
2022-08-26T04:20:11.135Z,9.661596
2022-08-26T04:21:11.166Z,9.661444
2022-08-26T04:22:11.145Z,9.661439
2022-08-26T04:23:11.133Z,9.661481
2022-08-26T04:24:12.238Z,9.661510
2022-08-26T04:25:12.117Z,9.661494
2022-08-26T04:26:11.130Z,9.661506
2022-08-26T04:27:11.109Z,9.661462
2022-08-26T04:28:11.114Z,9.661497
2022-08-26T04:29:11.089Z,9.661530
2022-08-26T04:30:11.102Z,9.661580
2022-08-26T04:31:11.100Z,9.661624
2022-08-26T04:32:11.211Z,9.661574
2022-08-26T04:33:13.029Z,9.661584
2022-08-26T04:34:11.231Z,9.661580
2022-08-26T04:35:11.064Z,9.661550
2022-08-26T04:36:11.056Z,9.661468
2022-08-26T04:37:11.094Z,9.661490
2022-08-26T04:38:11.039Z,9.661496
2022-08-26T04:39:11.031Z,9.661525
2022-08-26T04:40:11.081Z,9.661536
2022-08-26T04:41:15.437Z,9.661541
2022-08-26T04:42:11.028Z,9.661477
2022-08-26T04:43:11.033Z,9.661473
2022-08-26T04:44:11.010Z,9.661538
2022-08-26T04:45:11.709Z,9.661493
2022-08-26T04:46:11.071Z,9.661534
2022-08-26T04:47:10.995Z,9.661502
2022-08-26T04:48:11.130Z,9.661510
2022-08-26T04:49:10.980Z,9.661533
2022-08-26T04:50:11.120Z,9.661491
2022-08-26T04:51:10.979Z,9.661608
2022-08-26T04:52:10.962Z,9.661616
2022-08-26T04:53:11.982Z,9.661551
2022-08-26T04:54:10.956Z,9.661567
2022-08-26T04:55:10.968Z,9.661565
2022-08-26T04:56:10.955Z,9.661614
2022-08-26T04:57:10.943Z,9.661512
2022-08-26T04:58:10.957Z,9.661472
2022-08-26T04:59:16.918Z,9.661595
2022-08-26T05:00:11.912Z,9.661745
2022-08-26T05:01:10.990Z,9.661569
2022-08-26T05:02:10.927Z,9.661591
2022-08-26T05:03:10.912Z,9.661698
2022-08-26T05:04:10.969Z,9.661614
2022-08-26T05:05:10.890Z,9.661539
2022-08-26T05:06:10.884Z,9.661627
2022-08-26T05:07:10.882Z,9.661633
2022-08-26T05:08:11.364Z,9.661377
2022-08-26T05:09:10.867Z,9.661427
2022-08-26T05:10:11.007Z,9.661461
2022-08-26T05:11:10.853Z,9.661562
2022-08-26T05:12:10.863Z,9.661552
2022-08-26T05:13:12.642Z,9.661564
2022-08-26T05:14:10.839Z,9.661729
2022-08-26T05:15:10.935Z,9.661737
2022-08-26T05:16:11.570Z,9.661738
2022-08-26T05:17:10.832Z,9.661733
2022-08-26T05:18:10.822Z,9.661589
2022-08-26T05:19:10.815Z,9.661723
2022-08-26T05:20:10.814Z,9.661826
2022-08-26T05:21:10.830Z,9.661629
2022-08-26T05:22:10.783Z,9.661589
2022-08-26T05:23:10.832Z,9.661526
2022-08-26T05:24:10.776Z,9.661618
2022-08-26T05:25:10.762Z,9.661591
2022-08-26T05:26:10.800Z,9.661643
2022-08-26T05:27:11.787Z,9.661840
2022-08-26T05:28:10.779Z,9.662463
2022-08-26T05:29:10.751Z,9.662156
2022-08-26T05:30:10.851Z,9.662169
2022-08-26T05:31:10.793Z,9.662121
2022-08-26T05:32:11.279Z,9.662179
2022-08-26T05:33:10.900Z,9.662054
2022-08-26T05:34:13.386Z,9.661971
2022-08-26T05:35:10.724Z,9.661819
2022-08-26T05:36:10.710Z,9.661510
2022-08-26T05:37:10.738Z,9.661477
2022-08-26T05:38:12.822Z,9.661488
2022-08-26T05:39:11.697Z,9.661759
2022-08-26T05:40:10.744Z,9.661609
2022-08-26T05:41:10.697Z,9.661490
2022-08-26T05:42:10.761Z,9.661644
2022-08-26T05:43:10.687Z,9.661453
2022-08-26T05:44:10.683Z,9.661559
2022-08-26T05:45:10.658Z,9.661563
2022-08-26T05:46:10.729Z,9.661606
2022-08-26T05:47:10.669Z,9.661500
2022-08-26T05:48:10.670Z,9.661545
2022-08-26T05:49:12.587Z,9.661922
2022-08-26T05:50:10.624Z,9.661736
2022-08-26T05:51:10.618Z,9.661620
2022-08-26T05:52:10.644Z,9.661570
2022-08-26T05:53:10.615Z,9.661632
2022-08-26T05:54:10.716Z,9.661452
2022-08-26T05:55:10.599Z,9.661564
2022-08-26T05:56:10.614Z,9.661471
2022-08-26T05:57:10.603Z,9.661763
2022-08-26T05:58:10.591Z,9.661757
2022-08-26T05:59:14.206Z,9.661766
2022-08-26T06:00:10.573Z,9.661621
2022-08-26T06:01:10.647Z,9.661868
2022-08-26T06:02:10.575Z,9.661712
2022-08-26T06:03:10.943Z,9.661923
2022-08-26T06:04:10.556Z,9.661836
2022-08-26T06:05:10.552Z,9.661629
2022-08-26T06:06:10.782Z,9.661778
2022-08-26T06:07:12.111Z,9.661660
2022-08-26T06:08:10.535Z,9.661622
2022-08-26T06:09:11.142Z,9.661499
2022-08-26T06:10:30.961Z,9.661627
2022-08-26T06:11:18.531Z,9.661635
2022-08-26T06:12:11.620Z,9.661600
2022-08-26T06:13:12.121Z,9.661563
2022-08-26T06:14:10.491Z,9.661579
2022-08-26T06:15:10.487Z,9.661810
2022-08-26T06:16:10.562Z,9.661847
2022-08-26T06:17:11.379Z,9.662027
2022-08-26T06:18:10.498Z,9.661775
2022-08-26T06:19:11.650Z,9.661435
2022-08-26T06:20:11.507Z,9.661345
2022-08-26T06:21:10.440Z,9.661483
2022-08-26T06:22:10.450Z,9.661478
2022-08-26T06:23:10.510Z,9.661915
2022-08-26T06:24:11.449Z,9.661552
2022-08-26T06:25:10.468Z,9.661863
2022-08-26T06:26:11.074Z,9.661778
2022-08-26T06:27:11.364Z,9.661504
2022-08-26T06:28:10.415Z,9.661677
2022-08-26T06:29:10.435Z,9.661677
2022-08-26T06:30:10.417Z,9.661677
2022-08-26T06:31:10.462Z,9.661604
2022-08-26T06:32:10.380Z,9.660883
2022-08-26T06:33:10.471Z,9.661634
2022-08-26T06:34:10.976Z,9.661556
2022-08-26T06:35:12.071Z,9.661538
2022-08-26T06:36:10.363Z,9.661570
2022-08-26T06:37:10.363Z,9.661427
2022-08-26T06:38:10.361Z,9.661376
2022-08-26T06:39:10.352Z,9.661418
2022-08-26T06:40:10.444Z,9.661359
2022-08-26T06:41:10.335Z,9.661514
2022-08-26T06:42:11.094Z,9.661544
2022-08-26T06:43:10.320Z,9.661531
2022-08-26T06:44:10.326Z,9.661502
2022-08-26T06:45:10.438Z,9.661407
2022-08-26T06:46:10.328Z,9.661465
2022-08-26T06:47:10.321Z,9.661431
2022-08-26T06:48:10.317Z,9.661460
2022-08-26T06:49:10.288Z,9.661427
2022-08-26T06:50:10.275Z,9.661437
2022-08-26T06:51:11.331Z,9.661429
2022-08-26T06:52:10.292Z,9.661460
2022-08-26T06:53:10.267Z,9.661400
2022-08-26T06:54:10.273Z,9.661477
2022-08-26T06:55:10.798Z,9.661407
2022-08-26T06:56:10.275Z,9.661447
2022-08-26T06:57:10.277Z,9.661416
2022-08-26T06:58:10.259Z,9.661406
2022-08-26T06:59:10.239Z,9.661275
2022-08-26T07:00:10.240Z,9.661452
2022-08-26T07:01:11.630Z,9.661445
2022-08-26T07:02:10.420Z,9.661413
2022-08-26T07:03:11.482Z,9.661560
2022-08-26T07:04:10.697Z,9.661381
2022-08-26T07:05:10.217Z,9.661436
2022-08-26T07:06:10.218Z,9.661572
2022-08-26T07:07:10.227Z,9.661377
2022-08-26T07:08:10.198Z,9.661591
2022-08-26T07:09:10.231Z,9.661501
2022-08-26T07:10:10.175Z,9.661572
2022-08-26T07:11:10.210Z,9.661758
2022-08-26T07:12:10.202Z,9.661634
2022-08-26T07:13:10.157Z,9.661642
2022-08-26T07:14:10.157Z,9.661465
2022-08-26T07:15:11.155Z,9.661549
2022-08-26T07:16:10.183Z,9.661435
2022-08-26T07:17:13.852Z,9.661706
2022-08-26T07:18:10.136Z,9.661678
2022-08-26T07:19:10.796Z,9.661962
2022-08-26T07:20:10.134Z,9.661971
2022-08-26T07:21:10.125Z,9.661043
2022-08-26T07:22:10.137Z,9.661062
2022-08-26T07:23:10.146Z,9.660987
2022-08-26T07:24:10.979Z,9.661049
2022-08-26T07:25:10.098Z,9.660918
2022-08-26T07:26:10.107Z,9.660685
2022-08-26T07:27:10.105Z,9.661122
2022-08-26T07:28:10.224Z,9.661194
2022-08-26T07:29:10.099Z,9.661256
2022-08-26T07:30:10.092Z,9.661448
2022-08-26T07:31:10.115Z,9.661559
2022-08-26T07:32:10.065Z,9.661517
2022-08-26T07:33:10.075Z,9.661446
2022-08-26T07:34:10.074Z,9.661407
2022-08-26T07:35:10.067Z,9.661478
2022-08-26T07:36:10.045Z,9.661336
2022-08-26T07:37:10.047Z,9.661511
2022-08-26T07:38:10.042Z,9.661555
2022-08-26T07:39:10.060Z,9.661617
2022-08-26T07:40:10.113Z,9.661572
2022-08-26T07:41:10.022Z,9.661704
2022-08-26T07:42:10.020Z,9.661671
2022-08-26T07:43:10.183Z,9.661660
2022-08-26T07:44:10.022Z,9.661724
2022-08-26T07:45:09.987Z,9.661635
2022-08-26T07:46:13.323Z,9.661573
2022-08-26T07:47:25.136Z,9.661561
2022-08-26T07:48:09.975Z,9.661506
2022-08-26T07:49:10.035Z,9.661516
2022-08-26T07:50:10.008Z,9.661539
2022-08-26T07:51:09.979Z,9.661451
2022-08-26T07:52:09.979Z,9.661463
2022-08-26T07:53:10.817Z,9.661517
2022-08-26T07:54:09.969Z,9.661564
2022-08-26T07:55:10.935Z,9.661542
2022-08-26T07:56:09.938Z,9.661499
2022-08-26T07:57:09.932Z,9.661548
2022-08-26T07:58:09.946Z,9.661657
2022-08-26T07:59:13.593Z,9.661508
2022-08-26T08:00:09.931Z,9.661488
2022-08-26T08:01:10.122Z,9.661586
2022-08-26T08:02:09.915Z,9.661589
2022-08-26T08:03:10.122Z,9.661627
2022-08-26T08:04:10.266Z,9.661594
2022-08-26T08:05:09.970Z,9.661487
2022-08-26T08:06:09.929Z,9.661449
2022-08-26T08:07:11.508Z,9.661527
2022-08-26T08:08:26.811Z,9.661520
2022-08-26T08:09:10.880Z,9.661514
2022-08-26T08:10:11.630Z,9.661532
2022-08-26T08:11:10.889Z,9.661441
2022-08-26T08:12:14.156Z,9.661538
2022-08-26T08:13:09.995Z,9.661572
2022-08-26T08:14:11.758Z,9.661482
2022-08-26T08:15:09.843Z,9.661490
2022-08-26T08:16:12.682Z,9.661456
2022-08-26T08:17:09.930Z,9.661517
2022-08-26T08:18:15.654Z,9.661490
2022-08-26T08:19:09.828Z,9.661497
2022-08-26T08:20:09.815Z,9.661514
2022-08-26T08:21:23.783Z,9.661427
2022-08-26T08:22:17.200Z,9.661530
2022-08-26T08:23:10.804Z,9.661497
2022-08-26T08:24:09.794Z,9.661487
2022-08-26T08:25:10.436Z,9.661512
2022-08-26T08:26:09.816Z,9.661484
2022-08-26T08:27:09.799Z,9.661551
2022-08-26T08:28:10.141Z,9.661595
2022-08-26T08:29:09.784Z,9.661754
2022-08-26T08:30:09.789Z,9.661482
2022-08-26T08:31:09.821Z,9.661510
2022-08-26T08:32:11.582Z,9.661654
2022-08-26T08:33:10.789Z,9.661666
2022-08-26T08:34:09.757Z,9.661674
2022-08-26T08:35:11.074Z,9.662012
2022-08-26T08:36:09.758Z,9.662172
2022-08-26T08:37:10.905Z,9.662123
2022-08-26T08:38:09.872Z,9.661825
2022-08-26T08:39:09.855Z,9.661763
2022-08-26T08:40:09.789Z,9.661982
2022-08-26T08:41:09.732Z,9.661998
2022-08-26T08:42:09.722Z,9.661812
2022-08-26T08:43:10.015Z,9.661723
2022-08-26T08:44:09.827Z,9.661661
2022-08-26T08:45:09.690Z,9.661434
2022-08-26T08:46:09.777Z,9.661629
2022-08-26T08:47:09.705Z,9.661521
2022-08-26T08:48:09.892Z,9.661632
2022-08-26T08:49:09.698Z,9.661650
2022-08-26T08:50:09.801Z,9.661748
2022-08-26T08:51:09.681Z,9.661854
2022-08-26T08:52:09.658Z,9.661956
2022-08-26T08:53:09.666Z,9.661798
2022-08-26T08:54:09.665Z,9.661685
2022-08-26T08:55:11.138Z,9.661757
2022-08-26T08:56:09.663Z,9.661807
2022-08-26T08:57:09.643Z,9.661819
2022-08-26T08:58:09.795Z,9.661758
2022-08-26T08:59:09.653Z,9.661777
2022-08-26T09:00:09.639Z,9.661757
2022-08-26T09:01:09.885Z,9.661811
2022-08-26T09:02:09.695Z,9.661801
2022-08-26T09:03:09.651Z,9.661811
2022-08-26T09:04:09.630Z,9.661774
2022-08-26T09:05:09.601Z,9.661819
2022-08-26T09:06:10.946Z,9.661863
2022-08-26T09:07:09.739Z,9.661859
2022-08-26T09:08:11.081Z,9.661846
2022-08-26T09:09:09.668Z,9.661781
2022-08-26T09:10:09.646Z,9.661845
2022-08-26T09:11:09.654Z,9.661904
2022-08-26T09:12:09.756Z,9.661800
2022-08-26T09:13:09.591Z,9.661842
2022-08-26T09:14:10.634Z,9.661881
2022-08-26T09:15:09.619Z,9.661864
2022-08-26T09:16:10.144Z,9.661987
2022-08-26T09:17:09.840Z,9.661860
2022-08-26T09:18:10.743Z,9.661686
2022-08-26T09:19:09.546Z,9.661710
2022-08-26T09:20:09.536Z,9.661692
2022-08-26T09:21:09.535Z,9.661805
2022-08-26T09:22:09.926Z,9.661809
2022-08-26T09:23:09.782Z,9.661701
2022-08-26T09:24:11.235Z,9.661721
2022-08-26T09:25:11.176Z,9.661686
2022-08-26T09:26:09.588Z,9.661668
2022-08-26T09:27:11.475Z,9.661654
2022-08-26T09:28:09.808Z,9.661711
2022-08-26T09:29:09.509Z,9.661738
2022-08-26T09:30:11.530Z,9.661715
2022-08-26T09:31:11.457Z,9.661745
2022-08-26T09:32:42.871Z,9.661690
2022-08-26T09:33:11.104Z,9.661553
2022-08-26T09:34:09.472Z,9.661592
2022-08-26T09:35:09.454Z,9.661549
2022-08-26T09:36:09.459Z,9.661535
2022-08-26T09:37:09.448Z,9.661493
2022-08-26T09:38:12.043Z,9.661435
2022-08-26T09:39:09.559Z,9.661505
2022-08-26T09:40:09.446Z,9.661454
2022-08-26T09:41:09.419Z,9.661650
2022-08-26T09:42:09.680Z,9.661643
2022-08-26T09:43:09.414Z,9.661546
2022-08-26T09:44:09.430Z,9.661433
2022-08-26T09:45:10.392Z,9.661430
2022-08-26T09:46:09.454Z,9.661343
2022-08-26T09:47:09.409Z,9.661379
2022-08-26T09:48:09.486Z,9.661398
2022-08-26T09:49:09.399Z,9.661516
2022-08-26T09:50:09.794Z,9.661398
2022-08-26T09:51:09.371Z,9.661484
2022-08-26T09:52:09.373Z,9.661557
2022-08-26T09:53:10.007Z,9.661495
2022-08-26T09:54:09.362Z,9.661538
2022-08-26T09:55:09.354Z,9.661520
2022-08-26T09:56:09.350Z,9.661567
2022-08-26T09:57:09.351Z,9.661433
2022-08-26T09:58:09.432Z,9.661537
2022-08-26T09:59:10.892Z,9.661633
2022-08-26T10:00:09.329Z,9.661658
2022-08-26T10:01:09.401Z,9.661531
2022-08-26T10:02:12.263Z,9.661642
2022-08-26T10:03:09.645Z,9.661782
2022-08-26T10:04:09.332Z,9.661765
2022-08-26T10:05:09.871Z,9.661630
2022-08-26T10:06:09.318Z,9.661617
2022-08-26T10:07:09.296Z,9.661687
2022-08-26T10:08:09.302Z,9.661833
2022-08-26T10:09:09.785Z,9.662039
2022-08-26T10:10:09.278Z,9.661844
2022-08-26T10:11:09.277Z,9.661741
2022-08-26T10:12:09.381Z,9.661614
2022-08-26T10:13:09.449Z,9.661656
2022-08-26T10:14:09.249Z,9.661914
2022-08-26T10:15:09.263Z,9.661723
2022-08-26T10:16:10.729Z,9.661797
2022-08-26T10:17:09.353Z,9.661768
2022-08-26T10:18:09.487Z,9.661697
2022-08-26T10:19:09.224Z,9.661734
2022-08-26T10:20:22.730Z,9.661534
2022-08-26T10:21:09.237Z,9.661319
2022-08-26T10:22:09.225Z,9.661503
2022-08-26T10:23:09.331Z,9.661254
2022-08-26T10:24:11.413Z,9.661573
2022-08-26T10:25:09.184Z,9.661771
2022-08-26T10:26:09.194Z,9.661582
2022-08-26T10:27:09.188Z,9.661486
2022-08-26T10:28:09.474Z,9.661553
2022-08-26T10:29:09.204Z,9.661887
2022-08-26T10:30:09.165Z,9.661383
2022-08-26T10:31:09.156Z,9.661514
2022-08-26T10:32:09.199Z,9.661370
2022-08-26T10:33:09.279Z,9.661476
2022-08-26T10:34:09.186Z,9.661346
2022-08-26T10:35:09.157Z,9.661674
2022-08-26T10:36:09.143Z,9.661810
2022-08-26T10:37:16.002Z,9.661887
2022-08-26T10:38:10.449Z,9.661161
2022-08-26T10:39:09.158Z,9.660837
2022-08-26T10:40:09.158Z,9.661013
2022-08-26T10:41:10.364Z,9.660996
2022-08-26T10:42:09.106Z,9.661045
2022-08-26T10:43:11.407Z,9.660978
2022-08-26T10:44:10.120Z,9.661034
2022-08-26T10:45:11.895Z,9.661304
2022-08-26T10:46:09.131Z,9.661652
2022-08-26T10:47:09.086Z,9.661612
2022-08-26T10:48:09.256Z,9.661525
2022-08-26T10:49:09.075Z,9.661587
2022-08-26T10:50:09.083Z,9.661375
2022-08-26T10:51:09.072Z,9.661502
2022-08-26T10:52:15.162Z,9.661446
2022-08-26T10:53:10.044Z,9.661656
2022-08-26T10:54:09.065Z,9.661899
2022-08-26T10:55:09.147Z,9.661760
2022-08-26T10:56:18.644Z,9.661646
2022-08-26T10:57:10.025Z,9.661540
2022-08-26T10:58:09.272Z,9.661549
2022-08-26T10:59:10.376Z,9.661403
2022-08-26T11:00:09.008Z,9.661582
2022-08-26T11:01:10.199Z,9.661612
2022-08-26T11:02:09.000Z,9.661582
2022-08-26T11:03:09.556Z,9.661561
2022-08-26T11:04:09.059Z,9.661452
2022-08-26T11:05:09.004Z,9.661525
2022-08-26T11:06:09.007Z,9.661700
2022-08-26T11:07:08.976Z,9.661612
2022-08-26T11:08:09.171Z,9.661632
2022-08-26T11:09:08.962Z,9.661783
2022-08-26T11:10:09.986Z,9.661757
2022-08-26T11:11:08.960Z,9.661566
2022-08-26T11:12:10.173Z,9.661501
2022-08-26T11:13:09.085Z,9.661463
2022-08-26T11:14:08.960Z,9.661561
2022-08-26T11:15:08.936Z,9.661510
2022-08-26T11:16:08.994Z,9.661384
2022-08-26T11:17:08.959Z,9.661120
2022-08-26T11:18:08.973Z,9.661556
2022-08-26T11:19:08.919Z,9.661579
2022-08-26T11:20:13.466Z,9.661872
2022-08-26T11:21:10.341Z,9.661579
2022-08-26T11:22:08.916Z,9.661522
2022-08-26T11:23:08.937Z,9.661640
2022-08-26T11:24:08.893Z,9.661593
2022-08-26T11:25:11.469Z,9.661653
2022-08-26T11:26:08.907Z,9.661726
2022-08-26T11:27:08.980Z,9.661481
2022-08-26T11:28:09.067Z,9.661467
2022-08-26T11:29:13.217Z,9.661475
2022-08-26T11:30:09.076Z,9.661600
2022-08-26T11:31:08.925Z,9.661914
2022-08-26T11:32:08.857Z,9.661806
2022-08-26T11:33:09.065Z,9.661608
2022-08-26T11:34:10.944Z,9.661340
2022-08-26T11:35:08.855Z,9.661274
2022-08-26T11:36:12.479Z,9.661684
2022-08-26T11:37:08.862Z,9.661279
2022-08-26T11:38:09.002Z,9.661568
2022-08-26T11:39:08.929Z,9.661447
2022-08-26T11:40:08.864Z,9.661289
2022-08-26T11:41:08.815Z,9.661644
2022-08-26T11:42:08.818Z,9.661328
2022-08-26T11:43:08.776Z,9.661407
2022-08-26T11:44:08.780Z,9.661559